Latest Weather Observations for Mount Keith

IDW60801

Issued at 9:32 am WST Friday 27 March 2015 (issued every 30 minutes, with the page automatically refreshed every 10 minutes)

About weather observations | Map of weather stations | Latest weather observations for WA | Other Formats
Station Details ID: 512019 Name: MOUNT KEITH Lat: -27.29 Lon: 120.55 Height: 542.33 m
Data from the previous 72 hours. | See also: Recent months for locations in Western Australia
Date/Time
WST
Temp
°C
App
Temp
°C
Dew
Point
Rel
Hum
%
Delta-T
°C
Wind Press
QNH
hPa
Press
MSL
hPa
Rain
since 9 am
mm
Dir
 
Spd
km/h
Gust
km/h
Spd
kts
Gust
kts
27/09:30am 23.8 19.2 11.2 45 7.2 NNE 26 33 14 18 1022.2 1018.6 0.0
27/08:30am 21.6 17.8 11.3 52 5.9 NNE 22 30 12 16 1022.3 1018.7 0.0
27/08:00am 20.5 17.7 11.4 56 5.1 NE 17 22 9 12 1022.2 1018.6 0.0
27/07:30am 19.7 16.8 10.9 57 4.9 NE 17 22 9 12 1022.4 1018.8 0.0
27/07:00am 19.2 16.2 10.7 58 4.7 NE 17 20 9 11 1022.1 1018.5 0.0
27/06:30am 19.1 16.0 10.4 57 4.8 NE 17 22 9 12 1022.1 1018.5 0.0
27/06:00am 19.2 16.5 10.2 56 4.9 NE 15 20 8 11 1022.0 1018.4 0.0
27/05:30am 19.4 16.2 9.9 54 5.2 ENE 17 22 9 12 1021.7 1018.1 0.0
27/05:00am 19.4 16.6 9.9 54 5.2 ENE 15 20 8 11 1021.8 1018.2 0.0
27/04:30am 19.4 17.0 9.9 54 5.2 ENE 13 17 7 9 1021.8 1018.2 0.0
27/04:00am 19.2 17.1 9.9 55 5.1 E 11 15 6 8 1021.8 1018.2 0.0
27/03:30am 19.1 17.1 10.1 56 4.9 E 11 15 6 8 1021.9 1018.3 0.0
27/03:00am 18.8 16.9 10.4 58 4.6 E 11 15 6 8 1021.9 1018.3 0.0
27/02:30am 18.9 16.9 10.2 57 4.8 E 11 15 6 8 1022.0 1018.4 0.0
27/02:00am 19.1 16.7 10.1 56 4.9 ESE 13 17 7 9 1022.2 1018.6 0.0
27/01:30am 19.2 16.8 10.2 56 5.0 ESE 13 17 7 9 1022.2 1018.6 0.0
27/01:00am 19.1 17.0 9.9 55 5.0 ESE 11 15 6 8 1022.4 1018.8 0.0
27/12:30am 19.5 17.0 9.7 53 5.3 ESE 13 19 7 10 1022.7 1019.1 0.0
 
Date/Time
WST
Temp
°C
App
Temp
°C
Dew
Point
Rel
Hum
%
Delta-T
°C
Wind Press
QNH
hPa
Press
MSL
hPa
Rain
since 9 am
mm
Dir
 
Spd
km/h
Gust
km/h
Spd
kts
Gust
kts
26/11:30pm 20.0 18.3 9.9 52 5.6 ESE 9 11 5 6 1022.6 1019.0 0.0
26/11:00pm 20.3 18.7 10.1 52 5.6 ESE 9 11 5 6 1022.8 1019.3 0.0
26/10:30pm 19.8 17.8 10.2 54 5.3 ESE 11 15 6 8 1022.7 1019.1 0.0
26/10:00pm 19.9 18.3 10.3 54 5.3 E 9 13 5 7 1023.2 1019.6 0.0
26/09:30pm 20.2 18.5 10.0 52 5.6 SE 9 11 5 6 1023.3 1019.7 0.0
26/09:00pm 20.5 18.5 10.0 51 5.8 SE 11 13 6 7 1023.0 1019.4 0.0
26/08:30pm 20.5 18.8 9.7 50 5.9 ESE 9 11 5 6 1023.3 1019.7 0.0
26/08:00pm 20.1 18.3 9.4 50 5.8 E 9 11 5 6 1023.0 1019.4 0.0
26/07:30pm 20.8 18.9 9.1 47 6.4 ENE 9 11 5 6 1022.8 1019.3 0.0
26/07:00pm 21.7 19.4 8.9 44 7.0 ENE 11 15 6 8 1022.6 1019.0 0.0
26/06:30pm 22.3 19.9 8.8 42 7.3 E 11 15 6 8 1022.8 1019.3 0.0
26/06:00pm 22.8 19.9 8.1 39 7.9 ENE 13 19 7 10 1022.5 1018.9 0.0
26/05:30pm 23.1 19.7 7.6 37 8.3 ENE 15 20 8 11 1022.6 1019.0 0.0
26/05:00pm 23.4 19.7 7.9 37 8.3 E 17 24 9 13 1022.5 1018.9 0.0
26/04:30pm 24.1 20.8 8.1 36 8.7 ENE 15 22 8 12 1022.5 1018.9 0.0
26/04:00pm 24.6 20.9 8.1 35 9.0 E 17 22 9 12 1022.4 1018.8 0.0
26/03:30pm 23.3 19.4 7.0 35 8.7 E 17 24 9 13 1022.3 1018.7 0.0
26/03:00pm 23.8 20.3 7.4 35 8.8 E 15 20 8 11 1022.4 1018.8 0.0
26/02:30pm 23.8 19.3 7.0 34 9.0 E 20 28 11 15 1022.1 1018.5 0.0
26/02:00pm 23.3 19.0 7.0 35 8.6 E 19 28 10 15 1022.5 1018.9 0.0
26/01:30pm 23.1 18.8 7.2 36 8.5 ENE 19 28 10 15 1023.0 1019.4 0.0
26/01:00pm 22.6 18.1 6.8 36 8.3 E 20 33 11 18 1023.4 1019.8 0.0
26/12:30pm 22.2 17.1 6.0 35 8.4 ENE 22 32 12 17 1023.8 1020.2 0.0
26/12:00pm 21.6 16.1 5.9 36 8.1 E 24 32 13 17 1023.8 1020.2 0.0
26/11:30am 20.6 16.2 7.2 42 7.0 E 20 30 11 16 1024.3 1020.7 0.0
26/11:00am 20.1 14.4 5.0 37 7.5 E 24 32 13 17 1024.7 1021.2 0.0
26/10:30am 20.3 15.0 4.8 36 7.8 ENE 22 33 12 18 1025.2 1021.6 0.0
26/10:00am 20.0 14.3 4.9 37 7.5 E 24 33 13 18 1025.3 1021.7 0.0
26/09:30am 19.5 14.5 4.4 37 7.5 E 20 28 11 15 1026.0 1022.4 0.0
26/09:00am 19.5 14.1 4.4 37 7.4 E 22 33 12 18 1025.8 1022.2 0.0
26/08:30am 19.5 14.4 4.0 36 7.6 E 20 28 11 15 1025.8 1022.2 0.0
26/08:00am 19.3 13.8 3.9 36 7.5 E 22 32 12 17 1025.8 1022.2 0.0
26/07:30am 18.7 13.6 4.1 38 7.1 E 20 28 11 15 1025.4 1021.8 0.0
26/07:00am 18.2 14.0 4.0 39 6.9 E 15 20 8 11 1025.2 1021.6 0.0
26/06:30am 17.9 13.3 3.8 39 6.8 E 17 22 9 12 1024.9 1021.3 0.0
26/06:00am 18.0 13.7 3.5 38 6.9 E 15 22 8 12 1024.5 1021.0 0.0
26/05:30am 18.3 13.1 3.4 37 7.2 E 20 32 11 17 1023.7 1020.1 0.0
26/05:00am 18.5 13.5 3.6 37 7.2 E 19 28 10 15 1023.5 1019.9 0.0
26/04:30am 19.0 13.0 3.6 36 7.5 E 24 37 13 20 1023.1 1019.5 0.0
26/04:00am 19.3 14.2 3.9 36 7.5 E 20 30 11 16 1023.1 1019.5 0.0
26/03:30am 19.5 14.7 4.4 37 7.5 E 19 26 10 14 1023.1 1019.5 0.0
26/03:00am 19.7 14.7 4.6 37 7.5 E 20 30 11 16 1023.0 1019.4 0.0
26/02:30am 19.7 15.4 5.4 39 7.2 E 17 22 9 12 1022.7 1019.1 0.0
26/02:00am 19.9 15.7 5.5 39 7.3 E 17 24 9 13 1023.0 1019.4 0.0
26/01:30am 20.1 15.4 6.1 40 7.2 E 20 28 11 15 1022.8 1019.3 0.0
26/01:00am 20.5 15.5 6.4 40 7.3 E 22 32 12 17 1022.8 1019.3 0.0
26/12:30am 20.7 16.2 7.0 41 7.2 E 20 28 11 15 1023.0 1019.4 0.0
26/12:00am 20.4 16.7 8.1 45 6.5 ESE 17 26 9 14 1023.0 1019.4 0.0
 
Date/Time
WST
Temp
°C
App
Temp
°C
Dew
Point
Rel
Hum
%
Delta-T
°C
Wind Press
QNH
hPa
Press
MSL
hPa
Rain
since 9 am
mm
Dir
 
Spd
km/h
Gust
km/h
Spd
kts
Gust
kts
25/11:30pm 20.5 16.9 8.5 46 6.5 ESE 17 20 9 11 1023.1 1019.5 0.0
25/11:00pm 20.7 17.2 8.7 46 6.5 ESE 17 20 9 11 1023.1 1019.5 0.0
25/10:30pm 21.1 17.2 8.7 45 6.7 ESE 19 24 10 13 1023.2 1019.6 0.0
25/10:00pm 20.9 17.4 8.9 46 6.5 ESE 17 20 9 11 1023.1 1019.5 0.0
25/09:30pm 21.1 17.7 9.0 46 6.6 ESE 17 22 9 12 1023.0 1019.4 0.0
25/09:00pm 21.4 18.4 9.3 46 6.6 ESE 15 19 8 10 1023.1 1019.5 0.0
25/08:30pm 21.9 19.2 9.1 44 7.0 SE 13 19 7 10 1023.0 1019.4 0.0
25/08:00pm 22.5 19.1 9.0 42 7.4 SE 17 20 9 11 1022.6 1019.0 0.0
25/07:30pm 23.0 19.6 9.0 41 7.7 SE 17 20 9 11 1022.4 1018.8 0.0
25/07:00pm 23.4 19.9 8.7 39 8.0 SE 17 24 9 13 1021.7 1018.1 0.0
25/06:30pm 24.0 20.1 8.8 38 8.4 SE 19 24 10 13 1021.4 1017.8 0.0
25/06:00pm 24.5 20.4 8.5 36 8.8 ESE 20 26 11 14 1021.1 1017.4 0.0
25/05:30pm 25.2 20.6 8.2 34 9.3 SE 22 28 12 15 1020.8 1017.2 0.0
25/05:00pm 25.8 21.4 8.8 34 9.4 SE 22 28 12 15 1020.7 1017.1 0.0
25/04:30pm 26.4 22.3 8.8 33 9.8 SE 20 28 11 15 1021.0 1017.3 0.0
25/04:00pm 26.4 22.5 8.8 33 9.8 ESE 19 28 10 15 1021.0 1017.3 0.0
25/03:30pm 26.5 22.6 8.5 32 10.0 SE 19 30 10 16 1020.7 1017.1 0.0
25/03:00pm 26.4 23.0 9.3 34 9.6 ESE 17 26 9 14 1020.7 1017.1 0.0
25/02:30pm 25.4 21.2 8.4 34 9.4 SE 20 32 11 17 1021.0 1017.3 0.0
25/02:00pm 25.5 21.7 8.9 35 9.2 ESE 19 32 10 17 1021.4 1017.8 0.0
25/01:30pm 25.4 21.5 9.3 36 9.0 ESE 20 30 11 16 1021.7 1018.1 0.0
25/01:00pm 24.4 20.1 9.2 38 8.4 ESE 22 32 12 17 1021.9 1018.3 0.0
25/12:30pm 24.2 20.0 9.8 40 8.1 E 22 35 12 19 1022.3 1018.7 0.0
25/12:00pm 23.9 19.7 9.9 41 7.8 ESE 22 33 12 18 1022.6 1019.0 0.0
25/11:30am 23.1 18.6 10.2 44 7.2 E 24 33 13 18 1023.1 1019.5 0.0
25/11:00am 22.1 17.0 9.3 44 7.0 ESE 26 35 14 19 1023.5 1019.9 0.0
25/10:30am 21.5 16.8 9.4 46 6.6 E 24 32 13 17 1023.7 1020.1 0.0
25/10:00am 20.5 15.4 9.1 48 6.2 ESE 26 35 14 19 1023.9 1020.3 0.0
25/09:30am 19.5 14.5 9.4 52 5.5 ESE 26 35 14 19 1024.0 1020.4 0.0
25/09:00am 18.6 14.0 9.7 56 4.8 ESE 24 33 13 18 1024.0 1020.4 1.0
25/08:30am 17.6 12.9 10.7 64 3.8 ESE 26 33 14 18 1023.8 1020.2 1.0
25/08:00am 16.6 13.4 11.9 74 2.6 ESE 20 30 11 16 1023.7 1020.1 1.0
25/07:30am 15.6 12.7 12.2 80 1.9 ESE 19 24 10 13 1023.3 1019.7 1.0
25/07:00am 14.9 12.4 12.4 85 1.4 SE 17 22 9 12 1023.0 1019.4 1.0
25/06:30am 14.4 12.4 12.6 89 1.0 ESE 15 19 8 10 1022.7 1019.1 1.0
25/06:00am 14.4 12.4 12.8 90 0.9 SE 15 20 8 11 1022.5 1018.9 1.0
25/05:30am 14.8 13.0 13.2 90 0.9 SE 15 20 8 11 1022.0 1018.4 1.0
25/05:00am 14.9 13.5 13.4 91 0.9 SE 13 19 7 10 1021.6 1018.0 1.0
25/04:30am 15.0 13.4 12.9 87 1.2 SE 13 17 7 9 1021.3 1017.7 1.0
25/04:00am 14.9 14.1 12.8 87 1.2 ESE 9 11 5 6 1021.3 1017.7 1.0
25/03:30am 15.1 14.2 12.6 85 1.4 ESE 9 11 5 6 1021.1 1017.4 1.0
25/03:00am 15.5 14.2 12.6 83 1.6 ESE 11 13 6 7 1020.8 1017.2 1.0
25/02:30am 15.8 14.6 12.9 83 1.6 SE 11 15 6 8 1020.7 1017.1 1.0
25/02:00am 15.8 14.3 13.1 84 1.5 ESE 13 15 7 8 1021.0 1017.3 1.0
25/01:30am 16.1 15.3 13.9 87 1.3 SE 11 15 6 8 1021.1 1017.4 1.0
25/01:00am 16.9 16.0 13.6 81 1.9 ESE 11 15 6 8 1021.1 1017.4 1.0
25/12:30am 17.8 16.1 12.5 71 3.0 NE 13 17 7 9 1021.0 1017.3 1.0
25/12:00am 17.9 16.7 12.8 72 2.9 ENE 11 19 6 10 1021.4 1017.8 1.0
 
Date/Time
WST
Temp
°C
App
Temp
°C
Dew
Point
Rel
Hum
%
Delta-T
°C
Wind Press
QNH
hPa
Press
MSL
hPa
Rain
since 9 am
mm
Dir
 
Spd
km/h
Gust
km/h
Spd
kts
Gust
kts
24/11:30pm 17.1 16.6 13.8 81 1.9 ENE 9 15 5 8 1021.5 1017.9 1.0
24/11:00pm 16.9 16.8 13.4 80 2.0 ENE 6 11 3 6 1022.3 1018.7 1.0
24/10:30pm 16.6 15.1 13.1 80 2.0 E 13 17 7 9 1022.1 1018.5 1.0
24/10:00pm 19.9 17.3 9.2 50 5.8 E 13 20 7 11 1022.7 1019.1 0.0
24/09:30pm 20.0 16.6 9.0 49 6.0 E 17 24 9 13 1021.6 1018.0 0.0
24/09:00pm 20.1 17.1 9.1 49 5.9 E 15 20 8 11 1021.6 1018.0 0.0
24/08:30pm 20.1 17.4 9.1 49 6.0 E 13 17 7 9 1021.5 1017.9 0.0
24/08:00pm 20.1 17.0 8.8 48 6.1 E 15 22 8 12 1020.8 1017.2 0.0
24/07:30pm 20.3 17.5 8.6 47 6.3 E 13 19 7 10 1020.8 1017.2 0.0
24/07:00pm 20.5 16.6 8.5 46 6.4 ESE 19 26 10 14 1020.8 1017.2 0.0
24/06:30pm 20.7 16.5 8.4 45 6.6 ESE 20 26 11 14 1020.7 1017.1 0.0
24/06:00pm 21.0 16.4 8.3 44 6.8 ESE 22 32 12 17 1019.9 1016.3 0.0
24/05:30pm 21.6 16.5 7.8 41 7.4 SE 24 32 13 17 1019.9 1016.3 0.0
24/05:00pm 22.4 18.2 8.1 40 7.7 ESE 20 28 11 15 1019.8 1016.2 0.0
24/04:30pm 22.6 18.2 7.6 38 8.0 E 20 28 11 15 1020.1 1016.5 0.0
24/04:00pm 23.1 19.7 7.6 37 8.3 ESE 15 20 8 11 1019.8 1016.2 0.0
24/03:30pm 23.4 19.7 7.9 37 8.4 SE 17 24 9 13 1019.6 1016.0 0.0
24/03:00pm 23.4 20.0 7.5 36 8.5 ESE 15 24 8 13 1019.5 1015.9 0.0
24/02:30pm 23.7 20.2 7.3 35 8.8 SE 15 20 8 11 1019.7 1016.1 0.0
24/02:00pm 22.4 18.9 7.0 37 8.1 ESE 15 24 8 13 1019.7 1016.1 0.0
24/01:30pm 22.6 18.7 7.2 37 8.2 ESE 17 24 9 13 1019.7 1016.1 0.0
24/01:00pm 22.0 18.0 6.7 37 8.0 SE 17 26 9 14 1019.9 1016.3 0.0
24/12:30pm 21.4 16.7 6.1 37 7.9 E 20 30 11 16 1019.9 1016.3 0.0
24/12:00pm 21.8 17.3 6.9 38 7.8 ENE 20 28 11 15 1020.3 1016.7 0.0
24/11:30am 20.1 15.3 5.4 38 7.4 E 20 35 11 19 1020.7 1017.1 0.0
24/11:00am 19.7 14.5 5.4 39 7.2 E 22 32 12 17 1021.4 1017.8 0.0
24/10:30am 20.2 13.7 4.7 36 7.7 E 28 39 15 21 1021.3 1017.7 0.0
24/10:00am 19.4 13.5 4.0 36 7.5 E 24 39 13 21 1021.7 1018.1 0.0

Other Formats:

Comma delimited format used in spreadsheet applications
http://www.bom.gov.au/fwo/IDW60801/IDW60801.99434.axf

JavaScript Object Notation format (JSON) in row-major order
http://www.bom.gov.au/fwo/IDW60801/IDW60801.99434.json